createdAt,value
2022-08-16T00:00:04.417Z,17.63
2022-08-16T00:02:33.580Z,17.92
2022-08-16T00:05:01.392Z,20.42
2022-08-16T00:07:29.835Z,20.52
2022-08-16T00:09:58.014Z,17.23
2022-08-16T00:12:28.157Z,18.88
2022-08-16T00:14:57.350Z,19.75
2022-08-16T00:17:28.263Z,19.80
2022-08-16T00:19:56.204Z,18.50
2022-08-16T00:22:27.957Z,17.70
2022-08-16T00:24:55.593Z,17.60
2022-08-16T00:27:23.341Z,19.55
2022-08-16T00:30:00.553Z,18.52
2022-08-16T00:32:32.788Z,17.75
2022-08-16T00:35:00.638Z,22.45
2022-08-16T00:37:56.842Z,18.98
2022-08-16T00:40:35.019Z,18.98
2022-08-16T00:43:16.876Z,21.35
2022-08-16T00:46:22.395Z,18.48
2022-08-16T00:48:55.224Z,24.30
2022-08-16T00:51:25.253Z,20.10
2022-08-16T00:53:56.877Z,18.58
2022-08-16T00:56:56.003Z,20.73
2022-08-16T00:59:24.715Z,18.48
2022-08-16T01:01:53.061Z,19.60
2022-08-16T01:04:29.033Z,22.35
2022-08-16T01:07:01.118Z,22.45
2022-08-16T01:09:33.475Z,17.95
2022-08-16T01:12:03.743Z,18.50
2022-08-16T01:14:39.262Z,17.95
2022-08-16T01:17:12.642Z,18.50
2022-08-16T01:19:45.671Z,20.50
2022-08-16T01:22:48.280Z,20.63
2022-08-16T01:25:36.293Z,18.33
2022-08-16T01:28:09.755Z,22.77
2022-08-16T01:30:49.828Z,23.58
2022-08-16T01:33:19.583Z,19.00
2022-08-16T01:36:09.467Z,18.67
2022-08-16T01:38:49.082Z,26.88
2022-08-16T01:41:26.186Z,20.52
2022-08-16T01:44:01.138Z,20.58
2022-08-16T01:46:40.108Z,21.48
2022-08-16T01:49:18.852Z,20.42
2022-08-16T01:51:50.736Z,16.92
2022-08-16T01:54:17.983Z,18.08
2022-08-16T01:56:58.687Z,22.45
2022-08-16T01:59:27.246Z,22.65
2022-08-16T02:01:59.916Z,19.40
2022-08-16T02:04:48.665Z,20.67
2022-08-16T02:07:18.532Z,18.60
2022-08-16T02:09:57.435Z,19.48
2022-08-16T02:12:50.425Z,19.58
2022-08-16T02:15:16.922Z,19.70
2022-08-16T02:17:44.178Z,24.50
2022-08-16T02:20:12.645Z,20.98
2022-08-16T02:22:40.029Z,23.08
2022-08-16T02:25:14.753Z,22.40
2022-08-16T02:27:44.422Z,21.20
2022-08-16T02:30:37.215Z,21.88
2022-08-16T02:33:10.341Z,19.80
2022-08-16T02:35:53.765Z,22.05
2022-08-16T02:38:22.698Z,23.05
2022-08-16T02:40:50.035Z,22.65
2022-08-16T02:43:17.107Z,20.20
2022-08-16T02:45:44.363Z,21.75
2022-08-16T02:48:28.925Z,21.30
2022-08-16T02:51:06.056Z,20.25
2022-08-16T02:53:43.058Z,20.20
2022-08-16T02:56:15.140Z,20.55
2022-08-16T02:58:49.372Z,23.27
2022-08-16T03:01:25.021Z,21.20
2022-08-16T03:04:30.017Z,23.55
2022-08-16T03:06:56.368Z,19.63
2022-08-16T03:09:25.279Z,21.45
2022-08-16T03:11:57.131Z,23.52
2022-08-16T03:14:25.420Z,26.20
2022-08-16T03:16:59.374Z,23.67
2022-08-16T03:19:48.292Z,20.80
2022-08-16T03:22:27.940Z,21.27
2022-08-16T03:24:58.333Z,22.95
2022-08-16T03:27:31.221Z,24.83
2022-08-16T03:30:16.420Z,22.27
2022-08-16T03:32:47.170Z,20.95
2022-08-16T03:35:17.559Z,21.13
2022-08-16T03:38:02.781Z,24.65
2022-08-16T03:40:33.994Z,25.23
2022-08-16T03:43:20.118Z,22.30
2022-08-16T03:45:49.180Z,22.52
2022-08-16T03:48:20.918Z,21.20
2022-08-16T03:51:08.503Z,21.63
2022-08-16T03:53:37.410Z,22.55
2022-08-16T03:56:07.977Z,28.02
2022-08-16T03:58:50.936Z,23.45
2022-08-16T04:01:24.417Z,24.58
2022-08-16T04:03:57.659Z,23.45
2022-08-16T04:06:24.809Z,24.77
2022-08-16T04:08:52.000Z,22.15
2022-08-16T04:11:20.140Z,26.00
2022-08-16T04:13:59.962Z,21.98
2022-08-16T04:16:35.304Z,22.90
2022-08-16T04:19:04.590Z,22.92
2022-08-16T04:21:34.410Z,21.83
2022-08-16T04:24:08.062Z,24.52
2022-08-16T04:26:35.703Z,22.63
2022-08-16T04:29:16.334Z,22.02
2022-08-16T04:31:46.851Z,20.83
2022-08-16T04:34:28.277Z,21.60
2022-08-16T04:36:56.997Z,21.45
2022-08-16T04:39:37.085Z,25.90
2022-08-16T04:42:12.509Z,22.33
2022-08-16T04:44:53.330Z,26.30
2022-08-16T04:47:32.860Z,21.90
2022-08-16T04:50:02.043Z,25.73
2022-08-16T04:52:34.468Z,24.13
2022-08-16T04:55:08.056Z,24.65
2022-08-16T04:57:35.151Z,21.70
2022-08-16T05:00:32.181Z,22.10
2022-08-16T05:02:56.425Z,23.52
2022-08-16T05:05:32.639Z,20.73
2022-08-16T05:08:29.764Z,22.52
2022-08-16T05:10:51.003Z,22.38
2022-08-16T05:13:19.182Z,21.67
2022-08-16T05:15:47.246Z,20.83
2022-08-16T05:18:18.284Z,21.38
2022-08-16T05:20:54.256Z,20.95
2022-08-16T05:23:31.821Z,18.83
2022-08-16T05:26:00.515Z,19.38
2022-08-16T05:28:30.921Z,22.10
2022-08-16T05:31:06.827Z,22.85
2022-08-16T05:33:34.065Z,19.45
2022-08-16T05:36:03.769Z,21.80
2022-08-16T05:38:38.930Z,18.95
2022-08-16T05:41:09.478Z,18.70
2022-08-16T05:43:43.378Z,20.17
2022-08-16T05:46:28.888Z,19.27
2022-08-16T05:49:04.028Z,19.30
2022-08-16T05:51:39.969Z,21.65
2022-08-16T05:54:09.597Z,21.17
2022-08-16T05:56:39.901Z,19.08
2022-08-16T05:59:07.583Z,21.45
2022-08-16T06:01:38.401Z,20.35
2022-08-16T06:04:13.567Z,17.73
2022-08-16T06:06:57.865Z,17.80
2022-08-16T06:09:42.840Z,19.23
2022-08-16T06:12:26.889Z,18.05
2022-08-16T06:14:59.092Z,17.55
2022-08-16T06:17:42.951Z,18.90
2022-08-16T06:20:35.337Z,18.38
2022-08-16T06:23:17.187Z,17.40
2022-08-16T06:25:53.300Z,18.95
2022-08-16T06:28:34.869Z,17.92
2022-08-16T06:31:06.421Z,22.10
2022-08-16T06:33:41.176Z,17.10
2022-08-16T06:36:09.748Z,17.25
2022-08-16T06:38:38.528Z,17.90
2022-08-16T06:41:23.429Z,17.58
2022-08-16T06:43:55.014Z,18.80
2022-08-16T06:46:35.279Z,16.40
2022-08-16T06:49:11.014Z,17.02
2022-08-16T06:51:46.572Z,18.98
2022-08-16T06:54:16.565Z,17.33
2022-08-16T06:56:43.620Z,16.42
2022-08-16T06:59:11.138Z,17.27
2022-08-16T07:01:43.080Z,17.42
2022-08-16T07:04:32.445Z,15.75
2022-08-16T07:07:02.875Z,19.88
2022-08-16T07:09:30.634Z,19.05
2022-08-16T07:12:03.246Z,14.80
2022-08-16T07:14:33.165Z,20.40
2022-08-16T07:17:00.200Z,15.63
2022-08-16T07:20:01.323Z,14.13
2022-08-16T07:22:37.720Z,15.70
2022-08-16T07:25:08.353Z,15.57
2022-08-16T07:27:37.736Z,16.98
2022-08-16T07:30:46.034Z,14.02
2022-08-16T07:32:56.889Z,17.98
2022-08-16T07:35:24.913Z,16.58
2022-08-16T07:37:52.173Z,14.52
2022-08-16T07:40:19.260Z,13.85
2022-08-16T07:42:52.683Z,13.02
2022-08-16T07:45:20.184Z,15.23
2022-08-16T07:47:47.463Z,13.02
2022-08-16T07:50:56.041Z,17.52
2022-08-16T07:53:06.265Z,13.88
2022-08-16T07:55:45.666Z,16.33
2022-08-16T07:58:18.153Z,16.35
2022-08-16T08:00:46.104Z,14.98
2022-08-16T08:03:13.067Z,14.00
2022-08-16T08:05:43.371Z,16.48
2022-08-16T08:08:11.749Z,17.27
2022-08-16T08:10:57.743Z,15.85
2022-08-16T08:13:42.218Z,15.27
2022-08-16T08:16:18.915Z,17.10
2022-08-16T08:18:56.158Z,16.35
2022-08-16T08:22:00.049Z,17.80
2022-08-16T08:24:15.610Z,15.60
2022-08-16T08:26:43.228Z,15.00
2022-08-16T08:29:12.034Z,14.35
2022-08-16T08:31:42.419Z,14.90
2022-08-16T08:34:12.827Z,14.02
2022-08-16T08:36:40.207Z,16.30
2022-08-16T08:39:13.091Z,14.63
2022-08-16T08:41:42.340Z,16.45
2022-08-16T08:44:28.866Z,15.75
2022-08-16T08:47:04.782Z,15.45
2022-08-16T08:49:46.308Z,15.48
2022-08-16T08:52:35.274Z,16.23
2022-08-16T08:55:10.954Z,15.00
2022-08-16T08:57:46.644Z,14.65
2022-08-16T09:00:17.798Z,14.35
2022-08-16T09:02:52.114Z,13.38
2022-08-16T09:05:22.143Z,15.27
2022-08-16T09:08:01.813Z,14.48
2022-08-16T09:10:33.821Z,20.23
2022-08-16T09:13:02.219Z,16.75
2022-08-16T09:15:33.108Z,15.63
2022-08-16T09:18:25.083Z,14.32
2022-08-16T09:20:58.389Z,13.18
2022-08-16T09:23:27.157Z,11.82
2022-08-16T09:25:54.869Z,15.13
2022-08-16T09:29:13.509Z,11.73
2022-08-16T09:31:10.794Z,13.77
2022-08-16T09:33:39.314Z,12.30
2022-08-16T09:36:11.830Z,17.40
2022-08-16T09:39:00.018Z,15.70
2022-08-16T09:41:28.165Z,11.73
2022-08-16T09:43:59.749Z,16.88
2022-08-16T09:46:45.635Z,12.13
2022-08-16T09:49:19.818Z,13.70
2022-08-16T09:51:53.678Z,12.90
2022-08-16T09:54:25.474Z,16.83
2022-08-16T09:57:00.171Z,14.82
2022-08-16T09:59:30.440Z,18.83
2022-08-16T10:01:58.724Z,19.17
2022-08-16T10:04:33.173Z,11.38
2022-08-16T10:07:15.676Z,13.82
2022-08-16T10:09:54.622Z,12.25
2022-08-16T10:12:55.756Z,12.70
2022-08-16T10:15:24.458Z,12.48
2022-08-16T10:18:01.134Z,20.23
2022-08-16T10:20:33.921Z,11.45
2022-08-16T10:23:07.089Z,16.48
2022-08-16T10:27:17.502Z,20.30
2022-08-16T10:28:32.173Z,15.75
2022-08-16T10:31:06.844Z,14.98
2022-08-16T10:33:35.096Z,14.13
2022-08-16T10:36:09.041Z,15.10
2022-08-16T10:38:39.889Z,13.63
2022-08-16T10:41:10.753Z,13.70
2022-08-16T10:43:43.386Z,12.15
2022-08-16T10:46:39.379Z,11.82
2022-08-16T10:49:00.903Z,17.13
2022-08-16T10:51:34.254Z,12.07
2022-08-16T10:54:28.630Z,21.27
2022-08-16T10:56:59.035Z,14.10
2022-08-16T10:59:38.516Z,13.93
2022-08-16T11:02:59.579Z,14.80
2022-08-16T11:05:06.529Z,13.05
2022-08-16T11:07:52.279Z,13.27
2022-08-16T11:17:02.639Z,13.88
2022-08-16T11:19:05.463Z,13.20
2022-08-16T11:22:22.892Z,11.70
2022-08-16T11:24:42.797Z,11.30
2022-08-16T11:27:19.634Z,13.05
2022-08-16T11:29:52.234Z,12.55
2022-08-16T11:32:29.683Z,13.00
2022-08-16T11:35:14.299Z,15.00
2022-08-16T11:40:58.150Z,10.73
2022-08-16T11:43:33.295Z,10.85
2022-08-16T11:46:43.805Z,16.23
2022-08-16T11:48:53.988Z,11.65
2022-08-16T11:51:21.505Z,13.77
2022-08-16T11:53:48.465Z,14.93
2022-08-16T11:56:16.217Z,14.48
2022-08-16T11:58:51.792Z,13.13
2022-08-16T12:01:29.905Z,12.52
2022-08-16T12:04:13.361Z,14.52
2022-08-16T12:06:40.894Z,10.57
2022-08-16T12:09:08.488Z,12.85
2022-08-16T12:11:37.951Z,9.55
2022-08-16T12:14:07.344Z,9.57
2022-08-16T12:16:35.654Z,13.90
2022-08-16T12:19:10.571Z,9.75
2022-08-16T12:21:58.394Z,10.27
2022-08-16T12:24:27.712Z,9.68
2022-08-16T12:26:55.550Z,11.52
2022-08-16T12:29:23.297Z,10.45
2022-08-16T12:32:00.839Z,11.38
2022-08-16T12:34:50.489Z,16.60
2022-08-16T12:37:20.836Z,10.07
2022-08-16T12:39:50.809Z,11.65
2022-08-16T12:42:20.395Z,9.40
2022-08-16T12:44:50.185Z,9.05
2022-08-16T12:47:36.884Z,8.70
2022-08-16T12:50:07.646Z,7.72
2022-08-16T12:52:52.185Z,7.65
2022-08-16T12:55:20.862Z,10.07
2022-08-16T12:57:57.879Z,7.90
2022-08-16T13:00:33.127Z,12.25
2022-08-16T13:03:03.193Z,11.13
2022-08-16T13:08:03.606Z,8.50
2022-08-16T13:10:37.646Z,8.93
2022-08-16T13:13:08.942Z,10.50
2022-08-16T13:15:57.204Z,9.43
2022-08-16T13:18:33.877Z,9.25
2022-08-16T13:21:04.970Z,8.73
2022-08-16T13:23:33.292Z,9.40
2022-08-16T13:26:04.453Z,9.80
2022-08-16T13:28:32.389Z,13.88
2022-08-16T13:31:01.205Z,10.38
2022-08-16T13:33:37.162Z,13.82
2022-08-16T13:36:08.413Z,8.15
2022-08-16T13:38:49.303Z,8.88
2022-08-16T13:41:19.456Z,8.80
2022-08-16T13:43:46.492Z,8.77
2022-08-16T13:46:26.259Z,9.15
2022-08-16T13:48:53.633Z,10.73
2022-08-16T13:51:23.812Z,7.28
2022-08-16T13:53:59.163Z,8.00
2022-08-16T13:56:36.841Z,10.40
2022-08-16T13:59:06.505Z,8.20
2022-08-16T14:01:54.738Z,7.65
2022-08-16T14:04:26.559Z,7.40
2022-08-16T14:06:57.813Z,7.30
2022-08-16T14:09:27.168Z,9.85
2022-08-16T14:12:00.728Z,12.95
2022-08-16T14:14:30.015Z,7.82
2022-08-16T14:17:02.179Z,6.97
2022-08-16T14:19:30.142Z,10.60
2022-08-16T14:22:15.491Z,8.90
2022-08-16T14:24:50.191Z,11.35
2022-08-16T14:27:21.368Z,8.15
2022-08-16T14:29:51.249Z,8.05
2022-08-16T14:32:34.378Z,14.27
2022-08-16T14:35:08.429Z,10.32
2022-08-16T14:37:37.229Z,8.73
2022-08-16T14:40:09.763Z,8.45
2022-08-16T14:42:38.182Z,11.25
2022-08-16T14:45:07.588Z,10.68
2022-08-16T14:47:37.404Z,10.45
2022-08-16T14:50:07.934Z,11.57
2022-08-16T14:52:54.587Z,8.70
2022-08-16T14:55:23.412Z,9.68
2022-08-16T14:57:52.863Z,15.20
2022-08-16T15:00:27.167Z,8.35
2022-08-16T15:03:03.029Z,10.82
2022-08-16T15:05:32.106Z,9.32
2022-08-16T15:07:59.991Z,8.65
2022-08-16T15:10:29.392Z,8.80
2022-08-16T15:13:01.157Z,11.43
2022-08-16T15:15:30.486Z,10.18
2022-08-16T15:17:59.233Z,10.50
2022-08-16T15:20:33.074Z,12.45
2022-08-16T15:23:03.290Z,7.43
2022-08-16T15:25:43.655Z,7.00
2022-08-16T15:28:30.557Z,11.25
2022-08-16T15:31:03.461Z,11.15
2022-08-16T15:33:34.216Z,9.38
2022-08-16T15:36:03.565Z,9.68
2022-08-16T15:38:57.786Z,7.35
2022-08-16T15:41:42.555Z,13.55
2022-08-16T15:44:21.290Z,9.50
2022-08-16T15:46:55.805Z,12.10
2022-08-16T15:49:37.613Z,9.52
2022-08-16T15:52:24.990Z,10.32
2022-08-16T15:54:59.392Z,10.48
2022-08-16T15:57:28.763Z,10.50
2022-08-16T16:00:14.942Z,9.20
2022-08-16T16:02:43.166Z,9.77
2022-08-16T16:05:10.610Z,10.32
2022-08-16T16:07:39.416Z,10.48
2022-08-16T16:10:13.030Z,12.75
2022-08-16T16:12:52.896Z,6.95
2022-08-16T16:15:25.278Z,12.98
2022-08-16T16:17:53.624Z,7.72
2022-08-16T16:20:27.142Z,9.95
2022-08-16T16:23:01.628Z,7.90
2022-08-16T16:25:30.124Z,10.05
2022-08-16T16:27:59.581Z,15.73
2022-08-16T16:30:37.181Z,10.68
2022-08-16T16:33:21.143Z,10.07
2022-08-16T16:35:55.322Z,14.32
2022-08-16T16:38:31.227Z,9.00
2022-08-16T16:41:08.931Z,10.52
2022-08-16T16:43:41.166Z,7.95
2022-08-16T16:46:40.259Z,9.65
2022-08-16T16:48:55.737Z,6.70
2022-08-16T16:51:23.238Z,7.43
2022-08-16T16:53:56.068Z,11.13
2022-08-16T16:56:30.254Z,11.52
2022-08-16T16:59:04.658Z,8.98
2022-08-16T17:01:57.431Z,13.63
2022-08-16T17:04:31.598Z,9.73
2022-08-16T17:07:02.133Z,8.77
2022-08-16T17:09:30.935Z,10.57
2022-08-16T17:11:58.990Z,9.50
2022-08-16T17:14:31.864Z,7.50
2022-08-16T17:17:04.091Z,8.75
2022-08-16T17:19:31.932Z,11.95
2022-08-16T17:22:00.542Z,12.50
2022-08-16T17:24:39.378Z,13.40
2022-08-16T17:27:08.271Z,9.23
2022-08-16T17:29:42.915Z,10.35
2022-08-16T17:32:33.914Z,10.95
2022-08-16T17:35:17.866Z,14.40
2022-08-16T17:37:50.874Z,11.65
2022-08-16T17:40:47.426Z,15.43
2022-08-16T17:43:17.271Z,13.85
2022-08-16T17:45:44.545Z,13.57
2022-08-16T17:48:12.288Z,13.15
2022-08-16T17:50:40.920Z,13.15
2022-08-16T17:53:08.892Z,9.40
2022-08-16T17:55:38.354Z,11.32
2022-08-16T17:58:17.575Z,13.55
2022-08-16T18:00:56.521Z,13.48
2022-08-16T18:04:08.570Z,11.15
2022-08-16T18:06:23.004Z,13.50
2022-08-16T18:08:55.893Z,13.00
2022-08-16T18:11:27.828Z,13.77
2022-08-16T18:13:56.493Z,13.90
2022-08-16T18:16:23.860Z,12.45
2022-08-16T18:18:50.916Z,10.23
2022-08-16T18:21:36.741Z,12.20
2022-08-16T18:24:04.255Z,14.00
2022-08-16T18:26:31.420Z,17.35
2022-08-16T18:28:58.628Z,15.70
2022-08-16T18:31:25.709Z,12.25
2022-08-16T18:33:55.657Z,14.00
2022-08-16T18:36:24.019Z,17.52
2022-08-16T18:38:52.770Z,17.02
2022-08-16T18:41:21.641Z,13.85
2022-08-16T18:44:23.827Z,10.63
2022-08-16T18:46:35.602Z,13.18
2022-08-16T18:49:02.518Z,12.05
2022-08-16T18:51:29.393Z,16.25
2022-08-16T18:53:56.243Z,19.13
2022-08-16T18:56:23.253Z,18.00
2022-08-16T18:59:10.103Z,15.25
2022-08-16T19:01:37.018Z,18.80
2022-08-16T19:04:04.276Z,16.52
2022-08-16T19:06:31.141Z,15.55
2022-08-16T19:08:58.009Z,18.77
2022-08-16T19:11:28.322Z,19.35
2022-08-16T19:13:56.967Z,18.98
2022-08-16T19:16:23.895Z,19.65
2022-08-16T19:18:50.801Z,16.10
2022-08-16T19:21:17.726Z,21.98
2022-08-16T19:23:45.186Z,22.40
2022-08-16T19:26:25.972Z,19.17
2022-08-16T19:28:59.123Z,19.92
2022-08-16T19:31:31.451Z,17.30
2022-08-16T19:33:59.061Z,19.80
2022-08-16T19:36:35.468Z,18.73
2022-08-16T19:39:10.019Z,19.15
2022-08-16T19:41:40.723Z,21.25
2022-08-16T19:44:08.221Z,18.35
2022-08-16T19:46:35.950Z,25.23
2022-08-16T19:49:04.948Z,24.52
2022-08-16T19:51:31.891Z,17.40
2022-08-16T19:53:59.207Z,23.75
2022-08-16T19:56:27.015Z,21.90
2022-08-16T20:01:43.796Z,19.10
2022-08-16T20:04:12.787Z,20.88
2022-08-16T20:06:41.583Z,16.48
2022-08-16T20:09:10.489Z,18.80
2022-08-16T20:11:42.005Z,28.35
2022-08-16T20:14:09.097Z,21.75
2022-08-16T20:16:36.246Z,21.10
2022-08-16T20:19:04.374Z,24.13
2022-08-16T20:21:31.673Z,20.80
2022-08-16T20:24:22.776Z,16.65
2022-08-16T20:26:45.685Z,17.35
2022-08-16T20:29:12.879Z,24.52
2022-08-16T20:31:40.045Z,18.75
2022-08-16T20:34:07.153Z,19.58
2022-08-16T20:36:34.079Z,15.70
2022-08-16T20:39:04.136Z,26.83
2022-08-16T20:41:36.711Z,25.63
2022-08-16T20:44:04.104Z,16.73
2022-08-16T20:46:31.005Z,24.15
2022-08-16T20:48:58.228Z,16.33
2022-08-16T20:51:26.284Z,17.10
2022-08-16T20:53:53.458Z,15.25
2022-08-16T20:56:20.573Z,18.20
2022-08-16T20:58:47.801Z,20.35
2022-08-16T21:01:14.942Z,23.00
2022-08-16T21:03:42.079Z,21.70
2022-08-16T21:06:09.029Z,22.90
2022-08-16T21:08:52.131Z,21.23
2022-08-16T21:11:21.773Z,24.42
2022-08-16T21:13:50.516Z,20.15
2022-08-16T21:16:22.447Z,23.00
2022-08-16T21:18:50.410Z,17.67
2022-08-16T21:21:19.807Z,19.77
2022-08-16T21:23:50.100Z,18.30
2022-08-16T21:26:17.053Z,20.83
2022-08-16T21:28:44.720Z,17.20
2022-08-16T21:31:14.177Z,20.73
2022-08-16T21:33:42.585Z,17.15
2022-08-16T21:36:10.982Z,29.02
2022-08-16T21:38:38.557Z,22.60
2022-08-16T21:41:06.845Z,20.52
2022-08-16T21:43:34.396Z,19.33
2022-08-16T21:46:06.446Z,23.63
2022-08-16T21:48:35.863Z,23.33
2022-08-16T21:51:14.820Z,21.05
2022-08-16T21:53:43.512Z,25.55
2022-08-16T21:56:14.966Z,22.23
2022-08-16T21:58:46.191Z,20.75
2022-08-16T22:01:13.448Z,18.75
2022-08-16T22:03:40.668Z,23.30
2022-08-16T22:06:12.074Z,21.90
2022-08-16T22:08:50.623Z,19.73
2022-08-16T22:11:23.972Z,21.55
2022-08-16T22:13:58.995Z,17.83
2022-08-16T22:16:28.790Z,23.88
2022-08-16T22:18:55.929Z,22.52
2022-08-16T22:21:23.646Z,23.13
2022-08-16T22:23:56.981Z,23.58
2022-08-16T22:26:31.842Z,24.42
2022-08-16T22:29:10.692Z,23.35
2022-08-16T22:31:41.300Z,28.48
2022-08-16T22:34:09.064Z,23.63
2022-08-16T22:36:36.560Z,26.05
2022-08-16T22:39:07.347Z,24.77
2022-08-16T22:41:36.383Z,24.75
2022-08-16T22:44:04.869Z,24.17
2022-08-16T22:46:32.601Z,27.33
2022-08-16T22:48:59.559Z,27.80
2022-08-16T22:51:28.635Z,26.83
2022-08-16T22:53:57.051Z,27.63
2022-08-16T22:56:25.080Z,23.85
2022-08-16T22:58:52.753Z,22.67
2022-08-16T23:01:23.621Z,25.15
2022-08-16T23:03:57.297Z,21.35
2022-08-16T23:06:24.797Z,21.80
2022-08-16T23:08:52.217Z,17.80
2022-08-16T23:11:22.882Z,20.70
2022-08-16T23:13:55.525Z,24.15
2022-08-16T23:16:33.062Z,23.58
2022-08-16T23:19:12.782Z,25.80
2022-08-16T23:21:44.427Z,25.35
2022-08-16T23:24:12.637Z,22.77
2022-08-16T23:26:46.442Z,23.23
2022-08-16T23:29:23.157Z,25.83
2022-08-16T23:31:54.274Z,24.45
2022-08-16T23:34:22.519Z,24.88
2022-08-16T23:36:49.473Z,20.25
2022-08-16T23:39:16.635Z,22.00
2022-08-16T23:41:44.577Z,28.48
2022-08-16T23:44:45.570Z,20.10
2022-08-16T23:46:59.050Z,25.40
2022-08-16T23:49:56.076Z,20.95
2022-08-16T23:52:13.257Z,24.10
2022-08-16T23:54:40.409Z,20.58
2022-08-16T23:57:08.503Z,25.13
2022-08-16T23:59:43.764Z,23.75
